Time;durP1;ratioP1;P1;durP2;ratioP2;P2;SDS_P1;SDS_P2;PMS_P1;PMS_P2;Temp;Humidity;BMP_temperature;BMP_pressure;BME280_temperature;BME280_humidity;BME280_pressure;Samples;Min_cycle;Max_cycle;Signal;HPM_P1;HPM_P2
2021/11/18 00:01:44;;;;;;;2.53;2.33;;;6.60;99.90;;;;;;5066984;28;20244;-77
2021/11/18 00:04:10;;;;;;;1.75;1.70;;;6.60;99.90;;;;;;5068032;28;20236;-78
2021/11/18 00:06:37;;;;;;;2.67;2.50;;;6.60;99.90;;;;;;5068262;28;20164;-78
2021/11/18 00:09:03;;;;;;;1.40;1.40;;;6.50;99.90;;;;;;5066856;28;20165;-78
2021/11/18 00:11:29;;;;;;;1.75;1.35;;;6.60;99.90;;;;;;5068274;28;20153;-78
2021/11/18 00:13:56;;;;;;;2.03;1.95;;;6.50;99.90;;;;;;5068079;28;20196;-77
2021/11/18 00:16:22;;;;;;;0.75;0.75;;;6.50;99.90;;;;;;5066413;28;20153;-77
2021/11/18 00:18:49;;;;;;;1.27;1.17;;;6.50;99.90;;;;;;5049918;28;20185;-78
2021/11/18 00:21:27;;;;;;;0.40;0.40;;;6.50;99.90;;;;;;5052451;28;20162;-78
2021/11/18 00:23:56;;;;;;;0.82;0.82;;;6.50;99.90;;;;;;5071518;28;20192;-78
2021/11/18 00:26:24;;;;;;;0.52;0.52;;;6.50;99.90;;;;;;5069222;28;20177;-79
2021/11/18 00:28:51;;;;;;;2.35;2.05;;;6.50;99.90;;;;;;5071700;28;20683;-77
2021/11/18 00:31:21;;;;;;;1.70;1.50;;;6.50;99.90;;;;;;5071584;28;20157;-78
2021/11/18 00:33:47;;;;;;;0.20;0.20;;;6.50;99.90;;;;;;5070145;28;20226;-79
2021/11/18 00:36:15;;;;;;;2.40;1.13;;;6.50;99.90;;;;;;5070063;28;20168;-78
2021/11/18 00:38:42;;;;;;;4.32;3.15;;;6.50;99.90;;;;;;5058460;28;20185;-79
2021/11/18 00:41:08;;;;;;;1.65;1.13;;;6.50;99.90;;;;;;5051524;28;20165;-79
2021/11/18 00:43:34;;;;;;;0.93;0.93;;;6.50;99.90;;;;;;5051250;28;20245;-78
2021/11/18 00:46:00;;;;;;;1.30;1.20;;;6.50;99.90;;;;;;5049928;28;20219;-79
2021/11/18 00:48:27;;;;;;;2.65;2.40;;;6.50;99.90;;;;;;5051393;28;20168;-78
2021/11/18 00:51:02;;;;;;;0.60;0.60;;;6.50;99.90;;;;;;5051307;28;20165;-78
2021/11/18 00:53:29;;;;;;;1.70;1.70;;;6.50;99.90;;;;;;5051063;28;20234;-79
2021/11/18 00:55:55;;;;;;;2.92;2.75;;;6.50;99.90;;;;;;5050806;28;20280;-79
2021/11/18 00:58:22;;;;;;;2.15;2.05;;;6.50;99.90;;;;;;5050994;28;20179;-79
2021/11/18 01:00:50;;;;;;;1.08;1.08;;;6.50;99.90;;;;;;5053903;28;20177;-79
2021/11/18 01:03:19;;;;;;;0.68;0.60;;;6.50;99.90;;;;;;5069709;28;20177;-79
2021/11/18 01:05:48;;;;;;;4.10;2.20;;;6.50;99.90;;;;;;5069453;28;20197;-79
2021/11/18 01:08:14;;;;;;;1.23;1.23;;;6.50;99.90;;;;;;5069535;28;20611;-79
2021/11/18 01:10:49;;;;;;;0.95;0.95;;;6.50;99.90;;;;;;5069649;28;20530;-79
2021/11/18 01:13:15;;;;;;;2.08;1.98;;;6.50;99.90;;;;;;5069563;28;20667;-80
2021/11/18 01:15:44;;;;;;;1.80;1.73;;;6.50;99.90;;;;;;5070722;28;20225;-79
2021/11/18 01:18:10;;;;;;;2.88;2.75;;;6.50;99.90;;;;;;5070804;28;20165;-79
2021/11/18 01:20:38;;;;;;;1.45;1.42;;;6.50;99.90;;;;;;5070687;28;20163;-79
2021/11/18 01:23:08;;;;;;;1.15;0.98;;;6.50;99.90;;;;;;5070264;28;20192;-79
2021/11/18 01:25:35;;;;;;;4.57;3.78;;;6.50;99.90;;;;;;5070391;28;20207;-80
2021/11/18 01:28:03;;;;;;;1.75;1.08;;;6.50;99.90;;;;;;5069190;28;20184;-80
2021/11/18 01:30:32;;;;;;;0.90;0.90;;;6.50;99.90;;;;;;5070177;28;20649;-80
2021/11/18 01:32:59;;;;;;;0.85;0.85;;;6.50;99.90;;;;;;5063985;28;20729;-79
2021/11/18 01:35:26;;;;;;;3.20;2.08;;;6.50;99.90;;;;;;5050248;28;20569;-78
2021/11/18 01:37:53;;;;;;;0.77;0.77;;;6.50;99.90;;;;;;5049079;28;20181;-79
2021/11/18 01:40:23;;;;;;;1.60;1.50;;;6.50;99.90;;;;;;5050400;28;20224;-78
2021/11/18 01:42:50;;;;;;;1.10;1.10;;;6.50;99.90;;;;;;5050307;28;20193;-79
2021/11/18 01:45:17;;;;;;;0.65;0.65;;;6.50;99.90;;;;;;5050111;28;20550;-79
2021/11/18 01:47:44;;;;;;;0.52;0.52;;;6.50;99.90;;;;;;5048847;28;20177;-79
2021/11/18 01:50:15;;;;;;;14.55;2.05;;;6.50;99.90;;;;;;5048962;28;20173;-79
2021/11/18 01:52:44;;;;;;;2.47;1.00;;;6.50;99.90;;;;;;5048665;28;20197;-79
2021/11/18 01:55:11;;;;;;;2.25;2.15;;;6.50;99.90;;;;;;5049997;28;20196;-78
2021/11/18 01:57:37;;;;;;;3.88;3.67;;;6.50;99.90;;;;;;5049898;28;20220;-78
2021/11/18 02:00:14;;;;;;;2.42;2.22;;;6.50;99.90;;;;;;5048770;28;20521;-79
2021/11/18 02:02:40;;;;;;;1.48;1.48;;;6.40;99.90;;;;;;5049824;28;20239;-78
2021/11/18 02:05:18;;;;;;;1.10;1.10;;;6.40;99.90;;;;;;5049839;28;20189;-79
2021/11/18 02:07:46;;;;;;;4.15;1.75;;;6.40;99.90;;;;;;5049864;28;20188;-79
2021/11/18 02:10:20;;;;;;;0.52;0.52;;;6.40;99.90;;;;;;5049813;28;20631;-80
2021/11/18 02:12:46;;;;;;;1.88;1.85;;;6.40;99.90;;;;;;5049527;28;20189;-80
2021/11/18 02:15:21;;;;;;;2.05;1.85;;;6.40;99.90;;;;;;5048363;28;20177;-79
2021/11/18 02:17:47;;;;;;;2.33;1.85;;;6.40;99.90;;;;;;5049574;28;20173;-80
2021/11/18 02:20:25;;;;;;;0.90;0.90;;;6.40;99.90;;;;;;5048314;28;20673;-80
2021/11/18 02:22:51;;;;;;;0.30;0.30;;;6.40;99.90;;;;;;5049493;28;20200;-79
2021/11/18 02:25:18;;;;;;;1.60;1.50;;;6.40;99.90;;;;;;5048047;28;20200;-79
2021/11/18 02:27:44;;;;;;;1.55;1.52;;;6.40;99.90;;;;;;5049438;28;20174;-79
2021/11/18 02:30:12;;;;;;;1.02;1.02;;;6.40;99.90;;;;;;5049402;28;20158;-80
2021/11/18 02:32:41;;;;;;;2.45;2.28;;;6.40;99.90;;;;;;5047952;28;20324;-79
2021/11/18 02:35:17;;;;;;;2.30;2.20;;;6.40;99.90;;;;;;5048014;28;20173;-79
2021/11/18 02:37:44;;;;;;;1.30;1.30;;;6.40;99.90;;;;;;5049160;28;20172;-79
2021/11/18 02:40:11;;;;;;;1.15;1.15;;;6.30;99.90;;;;;;5048872;28;20161;-79
2021/11/18 02:42:39;;;;;;;1.73;1.63;;;6.40;99.90;;;;;;5047619;28;20220;-79
2021/11/18 02:45:09;;;;;;;1.33;1.33;;;6.40;99.90;;;;;;5049087;28;20197;-80
2021/11/18 02:47:35;;;;;;;2.85;2.75;;;6.40;99.90;;;;;;5049058;28;20154;-79
2021/11/18 02:50:02;;;;;;;0.40;0.40;;;6.40;99.90;;;;;;5047819;28;20170;-79
2021/11/18 02:52:31;;;;;;;9.70;5.43;;;6.40;99.90;;;;;;5047591;28;20203;-80
2021/11/18 02:55:01;;;;;;;2.90;1.00;;;6.40;99.90;;;;;;5049038;28;20157;-80
2021/11/18 02:57:27;;;;;;;1.02;1.02;;;6.40;99.90;;;;;;5047504;28;20224;-78
2021/11/18 02:59:53;;;;;;;0.45;0.45;;;6.30;99.90;;;;;;5048972;28;20576;-79
2021/11/18 03:02:22;;;;;;;0.73;0.73;;;6.30;99.90;;;;;;5047448;28;20244;-80
2021/11/18 03:04:48;;;;;;;3.15;2.95;;;6.30;99.90;;;;;;5048680;28;20223;-79
2021/11/18 03:07:14;;;;;;;1.27;0.90;;;6.30;99.90;;;;;;5047415;28;20173;-78
2021/11/18 03:09:40;;;;;;;1.95;1.85;;;6.20;99.90;;;;;;5047387;28;20169;-78
2021/11/18 03:12:06;;;;;;;3.00;2.72;;;6.20;99.90;;;;;;5047372;28;20185;-78
2021/11/18 03:14:32;;;;;;;1.30;1.30;;;6.30;99.90;;;;;;5047426;28;20192;-77
2021/11/18 03:16:59;;;;;;;11.43;3.83;;;6.30;99.90;;;;;;5048771;28;20175;-79
2021/11/18 03:19:26;;;;;;;0.52;0.52;;;6.30;99.90;;;;;;5047519;28;20184;-79
2021/11/18 03:21:52;;;;;;;0.43;0.43;;;6.30;99.90;;;;;;5048761;28;20197;-79
2021/11/18 03:24:19;;;;;;;0.60;0.60;;;6.20;99.90;;;;;;5047477;28;20197;-79
2021/11/18 03:26:45;;;;;;;2.33;1.65;;;6.20;99.90;;;;;;5047434;28;20196;-79
2021/11/18 03:29:11;;;;;;;1.80;1.70;;;6.20;99.90;;;;;;5048785;28;20157;-79
2021/11/18 03:31:38;;;;;;;1.42;1.40;;;6.20;99.90;;;;;;5048544;28;20193;-79
2021/11/18 03:34:08;;;;;;;0.80;0.80;;;6.20;99.90;;;;;;5047186;28;20192;-78
2021/11/18 03:36:36;;;;;;;4.25;4.00;;;6.10;99.90;;;;;;5047231;28;20297;-78
2021/11/18 03:39:05;;;;;;;3.35;3.05;;;6.10;99.90;;;;;;5047274;28;20176;-78
2021/11/18 03:41:33;;;;;;;1.40;1.30;;;6.10;99.90;;;;;;5048197;28;20197;-79
2021/11/18 03:44:03;;;;;;;2.05;1.45;;;6.10;99.90;;;;;;5048216;28;20235;-77
2021/11/18 03:46:40;;;;;;;2.63;2.40;;;6.10;99.90;;;;;;5048394;28;20162;-78
2021/11/18 03:49:08;;;;;;;0.80;0.80;;;6.10;99.90;;;;;;5048485;28;20161;-78
2021/11/18 03:51:34;;;;;;;0.63;0.63;;;6.10;99.90;;;;;;5047012;28;20204;-78
2021/11/18 03:54:02;;;;;;;1.13;1.13;;;6.20;99.90;;;;;;5052092;28;20162;-78
2021/11/18 03:56:34;;;;;;;0.90;0.90;;;6.10;99.90;;;;;;5052173;28;20213;-78
2021/11/18 03:59:01;;;;;;;2.17;2.08;;;6.10;99.90;;;;;;5052001;28;20156;-79
2021/11/18 04:01:27;;;;;;;0.32;0.32;;;6.20;99.90;;;;;;5051326;28;20224;-78
2021/11/18 04:03:54;;;;;;;1.25;1.25;;;6.10;99.90;;;;;;5051882;28;20165;-79
2021/11/18 04:06:22;;;;;;;0.00;0.00;;;6.10;99.90;;;;;;5052110;28;20153;-78
2021/11/18 04:08:48;;;;;;;0.43;0.43;;;6.10;99.90;;;;;;5050583;28;20264;-78
2021/11/18 04:11:15;;;;;;;0.75;0.75;;;6.10;99.90;;;;;;5050730;28;20252;-79
2021/11/18 04:13:41;;;;;;;0.22;0.22;;;6.10;99.90;;;;;;5050662;28;20184;-79
2021/11/18 04:16:07;;;;;;;6.25;1.70;;;6.20;99.90;;;;;;5050659;28;20579;-78
2021/11/18 04:18:34;;;;;;;2.95;0.77;;;6.10;99.90;;;;;;5050517;28;20554;-78
2021/11/18 04:20:59;;;;;;;0.68;0.68;;;6.10;99.90;;;;;;5050439;28;20177;-78
2021/11/18 04:23:27;;;;;;;2.85;2.67;;;6.20;99.90;;;;;;5051758;28;20165;-78
2021/11/18 04:25:54;;;;;;;5.57;3.40;;;6.20;99.90;;;;;;5050399;28;20213;-78
2021/11/18 04:28:21;;;;;;;1.73;1.65;;;6.10;99.90;;;;;;5050183;28;20233;-78
2021/11/18 04:30:49;;;;;;;1.02;1.02;;;6.10;99.90;;;;;;5051503;28;20240;-78
2021/11/18 04:33:16;;;;;;;1.48;1.42;;;6.10;99.90;;;;;;5051326;28;20245;-78
2021/11/18 04:35:42;;;;;;;2.33;2.22;;;6.10;99.90;;;;;;5051582;28;20168;-78
2021/11/18 04:38:08;;;;;;;0.40;0.40;;;6.20;99.90;;;;;;5050128;28;20265;-78
2021/11/18 04:40:35;;;;;;;1.50;1.50;;;6.20;99.90;;;;;;5049565;28;20177;-78
2021/11/18 04:43:04;;;;;;;1.40;1.30;;;6.20;99.90;;;;;;5050610;28;20209;-79
2021/11/18 04:45:30;;;;;;;1.63;1.60;;;6.20;99.90;;;;;;5049937;28;20205;-78
2021/11/18 04:47:56;;;;;;;0.63;0.63;;;6.30;99.90;;;;;;5050996;28;20158;-78
2021/11/18 04:50:23;;;;;;;0.95;0.95;;;6.30;99.90;;;;;;5049890;28;20169;-78
2021/11/18 04:52:50;;;;;;;3.53;2.00;;;6.40;99.90;;;;;;5049850;28;20201;-79
2021/11/18 04:55:19;;;;;;;6.03;2.65;;;6.40;99.90;;;;;;5051107;28;20173;-77
2021/11/18 04:57:47;;;;;;;6.00;1.95;;;6.40;99.90;;;;;;5050737;28;20217;-79
2021/11/18 05:00:19;;;;;;;8.02;4.80;;;6.30;99.90;;;;;;5050950;28;20153;-78
2021/11/18 05:02:47;;;;;;;2.50;2.33;;;6.40;99.90;;;;;;5049492;28;20201;-77
2021/11/18 05:05:14;;;;;;;2.00;1.90;;;6.40;99.90;;;;;;5048872;28;20205;-78
2021/11/18 05:07:41;;;;;;;3.17;2.88;;;6.40;99.90;;;;;;5050968;28;20162;-78
2021/11/18 05:10:08;;;;;;;3.40;1.77;;;6.40;99.90;;;;;;5050607;28;20213;-78
2021/11/18 05:12:34;;;;;;;0.20;0.20;;;6.30;99.90;;;;;;5050838;28;20724;-78
2021/11/18 05:15:03;;;;;;;2.90;2.75;;;6.30;99.90;;;;;;5050623;28;20168;-78
2021/11/18 05:17:29;;;;;;;1.98;1.65;;;6.30;99.90;;;;;;5049122;28;20173;-78
2021/11/18 05:19:55;;;;;;;6.03;1.45;;;6.30;99.90;;;;;;5050494;28;20160;-78
2021/11/18 05:22:21;;;;;;;2.45;1.30;;;6.30;99.90;;;;;;5049024;28;20209;-78
2021/11/18 05:24:47;;;;;;;1.70;1.60;;;6.30;99.90;;;;;;5050561;28;20199;-79
2021/11/18 05:27:14;;;;;;;2.53;1.73;;;6.40;99.90;;;;;;5050415;28;20627;-78
2021/11/18 05:29:39;;;;;;;1.17;1.17;;;6.40;99.90;;;;;;5050428;28;20223;-78
2021/11/18 05:32:05;;;;;;;0.20;0.20;;;6.40;99.90;;;;;;5050327;28;20189;-79
2021/11/18 05:34:31;;;;;;;0.63;0.63;;;6.40;99.90;;;;;;5050340;28;20161;-78
2021/11/18 05:36:57;;;;;;;0.50;0.50;;;6.30;99.90;;;;;;5050342;28;20215;-78
2021/11/18 05:39:23;;;;;;;1.02;0.90;;;6.30;99.90;;;;;;5048937;28;20173;-78
2021/11/18 05:41:50;;;;;;;1.15;1.05;;;6.20;99.90;;;;;;5050211;28;20197;-79
2021/11/18 05:44:16;;;;;;;1.25;0.90;;;6.20;99.90;;;;;;5050143;28;20281;-79
2021/11/18 05:46:42;;;;;;;2.25;2.15;;;6.20;99.90;;;;;;5048607;28;20177;-79
2021/11/18 05:49:08;;;;;;;4.53;3.90;;;6.20;99.90;;;;;;5048894;28;20170;-79
2021/11/18 05:51:35;;;;;;;3.40;1.45;;;6.20;99.90;;;;;;5049920;28;20185;-78
2021/11/18 05:54:03;;;;;;;1.00;1.00;;;6.20;99.90;;;;;;5049874;28;20161;-79
2021/11/18 05:56:29;;;;;;;0.52;0.52;;;6.20;99.90;;;;;;5048383;28;20217;-80
2021/11/18 05:58:55;;;;;;;1.38;1.27;;;6.30;99.90;;;;;;5048445;28;20181;-79
2021/11/18 06:01:26;;;;;;;0.70;0.70;;;6.30;99.90;;;;;;5048480;28;20204;-79
2021/11/18 06:03:52;;;;;;;0.38;0.38;;;6.30;99.90;;;;;;5049849;28;20161;-79
2021/11/18 06:06:18;;;;;;;1.73;1.73;;;6.40;99.90;;;;;;5049397;28;20185;-79
2021/11/18 06:08:44;;;;;;;1.30;1.30;;;6.30;99.90;;;;;;5049016;28;20158;-79
2021/11/18 06:11:12;;;;;;;0.95;0.95;;;6.30;99.90;;;;;;5047695;28;20284;-79
2021/11/18 06:13:38;;;;;;;1.45;1.35;;;6.20;99.90;;;;;;5049377;28;20172;-80
2021/11/18 06:16:05;;;;;;;0.90;0.90;;;6.20;99.90;;;;;;5046497;28;20181;-79
2021/11/18 06:18:31;;;;;;;6.88;2.35;;;6.30;99.90;;;;;;5048015;28;20208;-77
2021/11/18 06:20:58;;;;;;;2.67;2.47;;;6.30;99.90;;;;;;5047911;28;20178;-79
2021/11/18 06:23:24;;;;;;;0.20;0.20;;;6.20;99.90;;;;;;5048167;28;20204;-77
2021/11/18 06:25:51;;;;;;;1.27;1.20;;;6.20;99.90;;;;;;5047489;28;20197;-79
2021/11/18 06:28:18;;;;;;;3.45;3.05;;;6.20;99.90;;;;;;5049473;28;20149;-78
2021/11/18 06:30:53;;;;;;;0.93;0.88;;;6.20;99.90;;;;;;5047865;28;20232;-78
2021/11/18 06:33:21;;;;;;;3.38;3.10;;;6.20;99.90;;;;;;5047559;28;20172;-78
2021/11/18 06:35:47;;;;;;;1.58;1.55;;;6.20;99.90;;;;;;5047478;28;20189;-78
2021/11/18 06:38:12;;;;;;;2.33;2.22;;;6.20;99.90;;;;;;5048958;28;20588;-78
2021/11/18 06:40:38;;;;;;;2.17;1.27;;;6.20;99.90;;;;;;5048984;28;20169;-78
2021/11/18 06:43:06;;;;;;;3.03;2.92;;;6.30;99.90;;;;;;5047535;28;20197;-78
2021/11/18 06:45:36;;;;;;;1.50;1.45;;;6.30;99.90;;;;;;5048849;28;20200;-77
2021/11/18 06:48:04;;;;;;;4.60;2.35;;;6.30;99.90;;;;;;5047864;28;20233;-78
2021/11/18 06:50:31;;;;;;;4.50;2.83;;;6.20;99.90;;;;;;5047387;28;20166;-78
2021/11/18 06:52:56;;;;;;;2.30;2.10;;;6.30;99.90;;;;;;5048517;28;20197;-78
2021/11/18 06:55:22;;;;;;;2.58;2.13;;;6.30;99.90;;;;;;5048850;28;20189;-79
2021/11/18 06:57:50;;;;;;;3.35;3.05;;;6.30;99.90;;;;;;5047175;28;20235;-79
2021/11/18 07:00:17;;;;;;;2.88;2.67;;;6.40;99.90;;;;;;5048755;28;20179;-77
2021/11/18 07:02:44;;;;;;;4.03;3.72;;;6.40;99.90;;;;;;5046952;28;20205;-77
2021/11/18 07:05:11;;;;;;;4.97;4.50;;;6.50;99.90;;;;;;5048722;28;20185;-78
2021/11/18 07:07:37;;;;;;;2.35;2.03;;;6.60;99.90;;;;;;5047176;28;20224;-78
2021/11/18 07:10:05;;;;;;;3.13;2.83;;;6.50;99.90;;;;;;5048613;28;20177;-79
2021/11/18 07:12:31;;;;;;;1.10;1.10;;;6.50;99.90;;;;;;5048757;28;20220;-79
2021/11/18 07:14:58;;;;;;;3.67;3.38;;;6.70;99.90;;;;;;5048548;28;20157;-79
2021/11/18 07:17:25;;;;;;;0.68;0.68;;;6.70;99.90;;;;;;5046954;28;20177;-79
2021/11/18 07:19:51;;;;;;;2.05;1.65;;;6.70;99.90;;;;;;5047529;28;20201;-80
2021/11/18 07:22:17;;;;;;;2.78;1.52;;;6.60;99.90;;;;;;5047045;28;20224;-77
2021/11/18 07:24:43;;;;;;;5.55;3.50;;;6.60;99.90;;;;;;5047092;28;20200;-79
2021/11/18 07:27:09;;;;;;;2.72;2.60;;;6.50;99.90;;;;;;5047146;28;20173;-79
2021/11/18 07:29:36;;;;;;;2.88;2.67;;;6.50;99.90;;;;;;5056561;28;20176;-79
2021/11/18 07:32:02;;;;;;;1.60;1.60;;;6.40;99.90;;;;;;5072203;28;20215;-79
2021/11/18 07:34:28;;;;;;;3.42;2.38;;;6.40;99.90;;;;;;5072414;28;20248;-78
2021/11/18 07:36:54;;;;;;;2.72;2.53;;;6.40;99.90;;;;;;5070745;28;20187;-80
2021/11/18 07:39:22;;;;;;;2.33;2.22;;;6.40;99.90;;;;;;5072270;28;20161;-80
2021/11/18 07:41:53;;;;;;;1.98;1.88;;;6.40;99.90;;;;;;5060543;28;20280;-79
2021/11/18 07:44:19;;;;;;;4.00;3.60;;;6.70;99.90;;;;;;5050753;28;20201;-78
2021/11/18 07:46:45;;;;;;;1.58;1.55;;;7.00;99.90;;;;;;5052022;28;20183;-79
2021/11/18 07:49:12;;;;;;;1.45;1.35;;;7.50;99.90;;;;;;5050146;28;20173;-80
2021/11/18 07:51:38;;;;;;;1.40;1.33;;;7.80;99.90;;;;;;5048707;28;20189;-80
2021/11/18 07:54:06;;;;;;;1.90;1.80;;;8.10;99.90;;;;;;5050170;28;20158;-80
2021/11/18 07:56:33;;;;;;;1.60;1.50;;;8.20;99.90;;;;;;5058319;28;20307;-80
2021/11/18 07:59:00;;;;;;;3.38;3.15;;;8.20;99.90;;;;;;5070069;28;20211;-80
2021/11/18 08:01:26;;;;;;;3.40;3.20;;;8.50;99.90;;;;;;5070082;28;20188;-79
2021/11/18 08:03:53;;;;;;;2.40;2.25;;;8.70;99.90;;;;;;5059657;28;20181;-78
2021/11/18 08:06:22;;;;;;;4.28;3.92;;;9.00;99.90;;;;;;5067008;28;20353;-80
2021/11/18 08:08:50;;;;;;;2.35;2.15;;;9.40;99.90;;;;;;5071930;28;20153;-78
2021/11/18 08:11:20;;;;;;;1.63;1.42;;;10.00;99.90;;;;;;5070396;28;20201;-78
2021/11/18 08:13:48;;;;;;;3.58;0.98;;;10.70;99.90;;;;;;5071671;28;20224;-78
2021/11/18 08:16:15;;;;;;;2.38;2.25;;;11.10;99.90;;;;;;5071610;28;20156;-79
2021/11/18 08:18:42;;;;;;;5.03;4.55;;;11.60;99.90;;;;;;5070116;28;20175;-79
2021/11/18 08:21:09;;;;;;;1.67;1.45;;;11.90;99.90;;;;;;5071805;28;20149;-79
2021/11/18 08:23:35;;;;;;;1.40;0.73;;;12.50;99.90;;;;;;5070074;28;20193;-79
2021/11/18 08:26:03;;;;;;;2.28;1.90;;;12.70;99.90;;;;;;5070027;28;20211;-79
2021/11/18 08:28:30;;;;;;;3.28;2.30;;;13.30;99.90;;;;;;5071551;28;20153;-79
2021/11/18 08:30:56;;;;;;;2.65;2.53;;;13.70;99.90;;;;;;5071332;28;20153;-80
2021/11/18 08:33:23;;;;;;;3.10;2.85;;;14.20;99.90;;;;;;5071636;28;20161;-80
2021/11/18 08:35:48;;;;;;;2.85;2.65;;;14.70;99.90;;;;;;5071539;28;20542;-80
2021/11/18 08:38:17;;;;;;;4.47;2.17;;;15.20;99.90;;;;;;5069217;28;20164;-80
2021/11/18 08:41:16;;;;;;;1.58;1.52;;;15.50;99.90;;;;;;5069746;28;20180;-80
2021/11/18 08:43:49;;;;;;;2.78;2.30;;;15.60;99.90;;;;;;5068817;28;20185;-79
2021/11/18 08:46:19;;;;;;;1.10;1.10;;;15.80;99.90;;;;;;5068954;28;20216;-80
2021/11/18 08:48:46;;;;;;;2.20;2.05;;;15.60;99.90;;;;;;5052328;28;20227;-81
2021/11/18 08:51:13;;;;;;;2.58;2.22;;;15.40;99.90;;;;;;5052148;28;20168;-79
2021/11/18 08:53:42;;;;;;;2.55;2.30;;;15.30;99.90;;;;;;5052170;28;20272;-79
2021/11/18 08:56:09;;;;;;;2.60;1.95;;;15.60;99.90;;;;;;5068789;28;20228;-80
2021/11/18 08:58:38;;;;;;;4.20;3.45;;;15.30;99.90;;;;;;5069125;28;20633;-79
2021/11/18 09:01:09;;;;;;;5.15;3.05;;;15.20;99.90;;;;;;5052122;28;20210;-79
2021/11/18 09:03:37;;;;;;;1.75;1.67;;;16.00;99.90;;;;;;5068901;28;20206;-79
2021/11/18 09:06:05;;;;;;;2.13;2.03;;;16.40;99.90;;;;;;5068724;28;20207;-79
2021/11/18 09:08:32;;;;;;;2.35;1.35;;;16.70;99.90;;;;;;5068796;28;20549;-80
2021/11/18 09:11:00;;;;;;;2.92;2.47;;;17.00;99.90;;;;;;5051632;28;20164;-80
2021/11/18 09:13:26;;;;;;;2.65;2.45;;;16.90;99.90;;;;;;5068522;28;20207;-80
2021/11/18 09:15:53;;;;;;;3.70;3.05;;;16.90;99.90;;;;;;5068463;28;20164;-81
2021/11/18 09:18:20;;;;;;;4.18;2.50;;;16.50;99.90;;;;;;5052018;28;20247;-80
2021/11/18 09:20:49;;;;;;;21.17;3.22;;;16.00;99.90;;;;;;5070481;28;20161;-79
2021/11/18 09:23:17;;;;;;;4.05;3.53;;;14.70;99.90;;;;;;5069311;28;20199;-79
2021/11/18 09:25:46;;;;;;;4.45;3.70;;;14.10;99.90;;;;;;5069259;28;20560;-79
2021/11/18 09:28:14;;;;;;;3.30;2.92;;;15.10;99.90;;;;;;5070498;28;20202;-80
2021/11/18 09:30:51;;;;;;;3.28;2.97;;;16.30;99.90;;;;;;5069079;28;20191;-80
2021/11/18 09:33:17;;;;;;;5.43;2.67;;;15.50;99.90;;;;;;5070307;28;20192;-80
2021/11/18 09:35:51;;;;;;;4.03;3.45;;;13.90;99.90;;;;;;5068946;28;20190;-81
2021/11/18 09:38:20;;;;;;;4.85;1.88;;;13.30;99.90;;;;;;5070095;28;20204;-79
2021/11/18 09:40:55;;;;;;;2.25;2.05;;;13.00;99.90;;;;;;5070235;28;20236;-81
2021/11/18 09:43:58;;;;;;;1.70;1.52;;;13.50;99.90;;;;;;5070055;28;20688;-79
2021/11/18 09:46:48;;;;;;;2.65;2.28;;;13.70;99.90;;;;;;5069904;28;20266;-80
2021/11/18 09:49:38;;;;;;;3.40;2.60;;;13.40;99.90;;;;;;5068846;28;20171;-80
2021/11/18 09:52:10;;;;;;;0.90;0.90;;;14.30;99.90;;;;;;5069976;28;20196;-80
2021/11/18 09:55:05;;;;;;;4.50;2.28;;;14.80;99.90;;;;;;5069919;28;20165;-80
2021/11/18 09:58:04;;;;;;;2.75;1.95;;;15.00;99.90;;;;;;5068461;28;20249;-81
2021/11/18 10:01:00;;;;;;;3.63;3.35;;;13.80;99.90;;;;;;5068732;28;20629;-79
2021/11/18 10:03:52;;;;;;;1.58;1.45;;;15.10;99.90;;;;;;5069844;28;20160;-80
2021/11/18 10:06:27;;;;;;;5.47;2.85;;;14.30;99.90;;;;;;5068516;28;20203;-80
2021/11/18 10:09:17;;;;;;;3.38;2.53;;;15.00;99.90;;;;;;5069685;28;20179;-81
2021/11/18 10:12:06;;;;;;;2.70;2.38;;;16.70;99.90;;;;;;5069384;28;20196;-80
2021/11/18 10:14:51;;;;;;;1.02;0.98;;;16.10;99.90;;;;;;5068363;28;20179;-80
2021/11/18 10:17:22;;;;;;;0.30;0.30;;;15.50;99.90;;;;;;5068238;28;20263;-80
2021/11/18 10:19:53;;;;;;;0.88;0.88;;;14.10;99.90;;;;;;5068839;28;20169;-79
2021/11/18 10:22:21;;;;;;;5.97;1.42;;;14.70;99.90;;;;;;5068893;28;20250;-79
2021/11/18 10:24:51;;;;;;;1.23;1.23;;;15.30;99.90;;;;;;5069782;28;20200;-80
2021/11/18 10:27:41;;;;;;;0.38;0.28;;;14.60;99.90;;;;;;5068267;28;20579;-80
2021/11/18 10:30:10;;;;;;;1.48;1.38;;;13.90;99.90;;;;;;5069226;28;20167;-79
2021/11/18 10:32:59;;;;;;;1.40;1.33;;;14.10;99.90;;;;;;5067520;28;20188;-79
2021/11/18 10:35:32;;;;;;;1.67;1.58;;;13.70;99.90;;;;;;5064862;28;20654;-78
2021/11/18 10:38:19;;;;;;;2.40;2.15;;;13.60;99.90;;;;;;5069098;28;20172;-79
2021/11/18 10:41:00;;;;;;;1.35;0.35;;;13.80;99.90;;;;;;5067783;28;20250;-76
2021/11/18 10:43:30;;;;;;;0.80;0.80;;;13.30;99.90;;;;;;5067788;28;20203;-78
2021/11/18 10:46:29;;;;;;;0.52;0.52;;;13.20;99.90;;;;;;5068862;28;20192;-76
2021/11/18 10:49:09;;;;;;;0.43;0.43;;;13.60;99.90;;;;;;5067757;28;20176;-77
2021/11/18 10:51:47;;;;;;;1.02;1.02;;;13.20;99.90;;;;;;5067746;28;20199;-81
2021/11/18 10:54:16;;;;;;;0.32;0.32;;;12.80;99.90;;;;;;5068792;28;20219;-79
2021/11/18 10:57:03;;;;;;;1.55;0.95;;;13.20;99.90;;;;;;5068566;28;20232;-78
2021/11/18 10:59:36;;;;;;;1.25;1.20;;;13.70;99.90;;;;;;5067730;28;20218;-81
2021/11/18 11:02:19;;;;;;;0.80;0.75;;;13.80;99.90;;;;;;5068145;28;20222;-80
2021/11/18 11:04:48;;;;;;;0.10;0.10;;;13.20;99.90;;;;;;5067433;28;20196;-81
2021/11/18 11:07:17;;;;;;;0.35;0.35;;;13.30;99.90;;;;;;5068857;28;20160;-78
2021/11/18 11:09:48;;;;;;;0.47;0.47;;;13.40;99.90;;;;;;5067106;28;20224;-81
2021/11/18 11:12:36;;;;;;;2.50;1.65;;;13.20;99.90;;;;;;5067495;28;20199;-79
2021/11/18 11:15:26;;;;;;;0.50;0.50;;;12.60;99.90;;;;;;5068583;28;20175;-79
2021/11/18 11:18:07;;;;;;;1.25;1.15;;;12.30;99.90;;;;;;5066902;28;20165;-81
2021/11/18 11:20:38;;;;;;;0.73;0.73;;;12.70;99.90;;;;;;5068339;28;20161;-81
2021/11/18 11:23:24;;;;;;;1.70;1.63;;;13.10;99.90;;;;;;5067753;28;20172;-85
2021/11/18 11:26:22;;;;;;;0.60;0.60;;;12.30;99.90;;;;;;5067969;28;20199;-84
2021/11/18 11:29:15;;;;;;;0.95;0.95;;;11.80;99.90;;;;;;5067112;28;20256;-83
2021/11/18 11:31:58;;;;;;;0.28;0.28;;;11.80;99.90;;;;;;5066807;28;20377;-82
2021/11/18 11:35:11;;;;;;;0.75;0.75;;;11.60;99.90;;;;;;5068286;28;20153;-81
2021/11/18 11:37:58;;;;;;;0.50;0.50;;;11.70;99.90;;;;;;5039582;28;20184;-82
2021/11/18 11:40:47;;;;;;;1.65;1.55;;;12.10;99.90;;;;;;5068311;28;20168;-81
2021/11/18 11:43:22;;;;;;;1.48;1.38;;;12.40;99.90;;;;;;5066762;28;20207;-81
2021/11/18 11:46:15;;;;;;;0.20;0.20;;;12.70;99.90;;;;;;5066676;28;20676;-82
2021/11/18 11:49:02;;;;;;;0.55;0.55;;;12.70;99.90;;;;;;5068102;28;20168;-82
2021/11/18 11:51:43;;;;;;;1.30;1.20;;;13.30;99.90;;;;;;5066754;28;20199;-83
2021/11/18 11:54:21;;;;;;;0.63;0.63;;;13.10;99.90;;;;;;5068266;28;20156;-81
2021/11/18 11:56:51;;;;;;;1.08;1.08;;;12.80;99.90;;;;;;5066448;28;20310;-82
2021/11/18 11:59:42;;;;;;;1.02;1.02;;;13.30;99.90;;;;;;5066604;28;20196;-82
2021/11/18 12:02:29;;;;;;;1.77;1.67;;;13.70;99.90;;;;;;5065906;28;20645;-82
2021/11/18 12:05:31;;;;;;;0.77;0.77;;;13.60;99.90;;;;;;5067703;28;20181;-82
2021/11/18 12:08:08;;;;;;;0.45;0.45;;;13.90;99.90;;;;;;5065348;28;20207;-85
2021/11/18 12:10:44;;;;;;;0.50;0.50;;;14.40;99.90;;;;;;5048534;28;20176;-82
2021/11/18 12:13:27;;;;;;;0.65;0.65;;;13.70;99.90;;;;;;5066910;28;20167;-83
2021/11/18 12:16:05;;;;;;;0.70;0.70;;;13.40;99.90;;;;;;5052479;28;20184;-83
2021/11/18 12:18:43;;;;;;;2.47;2.30;;;12.90;99.90;;;;;;5052264;28;20184;-79
2021/11/18 12:21:10;;;;;;;0.50;0.50;;;12.00;99.90;;;;;;5052435;28;20243;-78
2021/11/18 12:24:03;;;;;;;0.85;0.73;;;11.50;99.90;;;;;;5052361;28;20195;-80
2021/11/18 12:27:00;;;;;;;0.30;0.30;;;11.40;99.90;;;;;;5052222;28;20311;-80
2021/11/18 12:29:42;;;;;;;0.30;0.30;;;11.30;99.90;;;;;;5052369;28;20203;-80
2021/11/18 12:32:08;;;;;;;0.20;0.20;;;11.60;99.90;;;;;;5052301;28;20257;-79
2021/11/18 12:35:23;;;;;;;0.30;0.30;;;11.60;99.90;;;;;;5069297;28;20164;-80
2021/11/18 12:38:26;;;;;;;0.75;0.75;;;11.60;99.90;;;;;;4979339;28;20185;-80
2021/11/18 12:41:08;;;;;;;0.30;0.30;;;11.50;99.90;;;;;;5068829;28;20253;-81
2021/11/18 12:44:16;;;;;;;0.32;0.32;;;11.50;99.90;;;;;;5069817;28;20188;-81
2021/11/18 12:47:06;;;;;;;0.17;0.17;;;11.50;99.90;;;;;;5069243;28;20191;-81
2021/11/18 12:49:38;;;;;;;4.32;2.13;;;11.70;99.90;;;;;;5071082;28;20165;-82
2021/11/18 12:52:12;;;;;;;1.05;0.82;;;11.80;99.90;;;;;;5069525;28;20196;-81
2021/11/18 12:54:43;;;;;;;0.40;0.40;;;12.00;99.90;;;;;;5070648;28;20187;-76
2021/11/18 12:57:12;;;;;;;0.28;0.28;;;12.00;99.90;;;;;;5070351;28;20255;-77
2021/11/18 12:59:46;;;;;;;0.22;0.22;;;11.60;99.90;;;;;;5070644;28;20196;-78
2021/11/18 13:02:27;;;;;;;1.63;1.33;;;11.50;99.90;;;;;;5069475;28;20196;-77
2021/11/18 13:05:02;;;;;;;0.15;0.15;;;11.50;99.90;;;;;;5070575;28;20197;-76
2021/11/18 13:07:43;;;;;;;0.10;0.10;;;11.40;99.90;;;;;;5069292;28;20169;-75
2021/11/18 13:10:29;;;;;;;1.95;0.82;;;11.40;99.90;;;;;;5070543;28;20161;-75
2021/11/18 13:13:01;;;;;;;0.43;0.32;;;11.30;99.90;;;;;;5070580;28;20194;-76
2021/11/18 13:15:46;;;;;;;4.57;0.90;;;11.40;99.90;;;;;;5069277;28;20196;-79